North Ridgeville, Ohio
Current Conditions -  °F | °C
As of 5:15 AM on Tuesday 27 Jan 2015 (Local Time) from KCLE Reporting Station
Light Snow Light Snow  
Wind Chill:   Ceiling: 3100
Heat Index: 18°   Visibility: 8mi
Dew Point: 14°   Wind: 10mph
Humidity: 84%   Direction: 20°NNE
Pressure: 29.96"   Gusts: NA
Location:  41.39°N, 82.02°W
Report Text: KCLE 271015Z 02009KT 8SM -SN FEW011 OVC031 M08/M10 A2996 RMK AO2 P0000 T10781100 $
Loading
Personal Weather Stations






























Interactive Weather Map New forecast layout! Learn more

10-Day Weather Forecast

Advertisements
Track Severe Weather on mobile